createdAt,value
2022-10-13T00:02:32.392Z,18.60
2022-10-13T00:12:37.340Z,19.37
2022-10-13T00:22:42.286Z,18.60
2022-10-13T00:32:46.558Z,20.33
2022-10-13T00:42:49.519Z,24.37
2022-10-13T00:52:55.440Z,20.80
2022-10-13T01:02:59.831Z,24.00
2022-10-13T01:13:14.487Z,26.47
2022-10-13T01:23:37.183Z,26.43
2022-10-13T01:33:45.422Z,19.57
2022-10-13T01:43:53.196Z,20.70
2022-10-13T01:53:57.479Z,22.83
2022-10-13T02:04:13.705Z,20.53
2022-10-13T02:14:24.290Z,26.33
2022-10-13T02:24:27.447Z,19.33
2022-10-13T02:34:31.834Z,19.80
2022-10-13T02:44:34.699Z,19.13
2022-10-13T02:54:38.654Z,23.47
2022-10-13T03:04:41.734Z,23.80
2022-10-13T03:14:46.015Z,21.37
2022-10-13T03:24:48.934Z,21.80
2022-10-13T03:34:53.289Z,19.47
2022-10-13T03:44:56.772Z,17.10
2022-10-13T03:55:00.953Z,20.87
2022-10-13T04:05:03.920Z,18.37
2022-10-13T04:15:09.801Z,21.30
2022-10-13T04:25:12.976Z,15.93
2022-10-13T04:35:17.469Z,13.73
2022-10-13T04:45:20.303Z,18.73
2022-10-13T04:55:26.786Z,17.57
2022-10-13T05:05:29.814Z,21.17
2022-10-13T05:15:34.808Z,18.97
2022-10-13T05:25:38.688Z,17.47
2022-10-13T05:35:42.801Z,21.60
2022-10-13T05:45:45.654Z,21.20
2022-10-13T05:55:50.619Z,22.53
2022-10-13T06:05:53.755Z,26.33
2022-10-13T06:15:57.978Z,26.10
2022-10-13T06:26:00.963Z,25.00
2022-10-13T06:36:07.150Z,22.20
2022-10-13T06:46:10.318Z,27.20
2022-10-13T06:56:14.738Z,22.03
2022-10-13T07:06:18.811Z,20.50
2022-10-13T07:16:23.185Z,23.03
2022-10-13T07:26:26.449Z,24.00
2022-10-13T07:36:30.763Z,30.90
2022-10-13T07:46:34.127Z,21.93
2022-10-13T07:56:38.477Z,20.20
2022-10-13T08:06:43.249Z,20.47
2022-10-13T08:16:51.329Z,24.43
2022-10-13T08:26:56.555Z,21.50
2022-10-13T08:37:00.859Z,23.20
2022-10-13T08:47:10.651Z,17.43
2022-10-13T08:57:14.930Z,20.90
2022-10-13T09:07:22.626Z,16.63
2022-10-13T09:17:28.690Z,16.70
2022-10-13T09:27:43.619Z,12.53
2022-10-13T09:38:02.674Z,22.93
2022-10-13T09:48:08.670Z,22.37
2022-10-13T09:58:17.077Z,20.17
2022-10-13T10:08:33.190Z,16.73
2022-10-13T10:18:43.907Z,16.63
2022-10-13T10:28:57.522Z,14.20
2022-10-13T10:39:07.953Z,12.80
2022-10-13T10:49:19.003Z,12.33
2022-10-13T10:59:40.875Z,9.80
2022-10-13T11:10:05.965Z,8.13
2022-10-13T11:20:42.544Z,13.57
2022-10-13T11:30:50.746Z,17.10
2022-10-13T11:51:23.789Z,14.87
2022-10-13T12:01:26.635Z,10.37
2022-10-13T12:11:33.219Z,12.23
2022-10-13T12:21:50.287Z,14.50
2022-10-13T12:31:55.469Z,12.63
2022-10-13T12:42:00.587Z,15.37
2022-10-13T12:52:14.529Z,14.30
2022-10-13T13:02:22.895Z,21.70
2022-10-13T13:22:34.704Z,17.97
2022-10-13T13:32:39.096Z,11.70
2022-10-13T13:42:42.339Z,18.20
2022-10-13T13:52:46.695Z,15.47
2022-10-13T14:02:50.504Z,14.67
2022-10-13T14:12:55.010Z,17.50
2022-10-13T14:22:57.877Z,17.90
2022-10-13T14:33:05.051Z,15.97
2022-10-13T14:43:08.006Z,13.17
2022-10-13T14:53:15.549Z,19.37
2022-10-13T15:03:18.420Z,14.80
2022-10-13T15:13:23.359Z,15.50
2022-10-13T15:23:26.750Z,9.47
2022-10-13T15:33:32.111Z,13.10
2022-10-13T15:43:35.752Z,14.40
2022-10-13T15:53:39.956Z,17.00
2022-10-13T16:03:43.560Z,14.03
2022-10-13T16:13:49.046Z,14.53
2022-10-13T16:23:51.803Z,18.43
2022-10-13T16:33:56.187Z,16.70
2022-10-13T16:43:59.092Z,16.90
2022-10-13T16:54:04.586Z,16.50
2022-10-13T17:04:07.740Z,15.97
2022-10-13T17:14:12.165Z,17.27
2022-10-13T17:24:15.750Z,18.40
2022-10-13T17:34:19.967Z,13.43
2022-10-13T17:44:24.370Z,17.67
2022-10-13T17:54:28.566Z,15.83
2022-10-13T18:04:31.230Z,12.07
2022-10-13T18:14:35.529Z,13.03
2022-10-13T18:24:38.763Z,11.93
2022-10-13T18:34:43.137Z,8.10
2022-10-13T18:44:46.095Z,4.93
2022-10-13T18:54:50.908Z,7.53
2022-10-13T19:04:54.200Z,4.63
2022-10-13T19:14:58.875Z,4.33
2022-10-13T19:25:01.814Z,4.83
2022-10-13T19:35:06.575Z,4.00
2022-10-13T19:45:10.270Z,7.93
2022-10-13T19:55:14.475Z,6.63
2022-10-13T20:05:19.926Z,5.30
2022-10-13T20:15:27.709Z,6.53
2022-10-13T20:25:37.795Z,8.13
2022-10-13T20:35:42.019Z,3.97
2022-10-13T20:45:44.666Z,6.20
2022-10-13T20:55:57.476Z,7.53
2022-10-13T21:06:03.686Z,6.67
2022-10-13T21:16:09.679Z,8.80
2022-10-13T21:26:16.290Z,8.20
2022-10-13T21:36:25.104Z,6.70
2022-10-13T21:46:29.786Z,6.00
2022-10-13T21:56:35.029Z,8.77
2022-10-13T22:06:38.738Z,6.17
2022-10-13T22:16:45.270Z,6.40
2022-10-13T22:26:49.973Z,11.27
2022-10-13T22:36:54.829Z,10.03
2022-10-13T22:46:57.978Z,11.20
2022-10-13T22:57:02.159Z,9.47
2022-10-13T23:07:05.153Z,10.77
2022-10-13T23:17:09.467Z,9.07
2022-10-13T23:27:12.386Z,7.27
2022-10-13T23:37:16.641Z,7.03
2022-10-13T23:47:19.865Z,8.37
2022-10-13T23:57:24.316Z,8.87
